sensor_id;sensor_type;location;lat;lon;timestamp;pressure;altitude;pressure_sealevel;temperature;humidity
42335;BME280;27986;42.700;24.178;2022-09-21T00:01:58;93926.09;;;7.29;81.74
42335;BME280;27986;42.700;24.178;2022-09-21T00:04:23;93938.16;;;7.46;81.01
42335;BME280;27986;42.700;24.178;2022-09-21T00:06:49;93946.06;;;7.48;80.84
42335;BME280;27986;42.700;24.178;2022-09-21T00:09:14;93944.09;;;7.65;79.81
42335;BME280;27986;42.700;24.178;2022-09-21T00:11:40;93939.69;;;7.53;79.53
42335;BME280;27986;42.700;24.178;2022-09-21T00:14:09;93932.78;;;7.37;80.41
42335;BME280;27986;42.700;24.178;2022-09-21T00:16:35;93962.41;;;7.49;80.37
42335;BME280;27986;42.700;24.178;2022-09-21T00:19:01;93933.78;;;7.34;80.36
42335;BME280;27986;42.700;24.178;2022-09-21T00:21:27;93974.19;;;7.70;79.25
42335;BME280;27986;42.700;24.178;2022-09-21T00:23:53;93933.19;;;7.13;80.67
42335;BME280;27986;42.700;24.178;2022-09-21T00:26:21;93972.50;;;7.30;81.50
42335;BME280;27986;42.700;24.178;2022-09-21T00:28:50;93936.47;;;7.06;82.01
42335;BME280;27986;42.700;24.178;2022-09-21T00:31:16;93975.38;;;7.47;81.28
42335;BME280;27986;42.700;24.178;2022-09-21T00:33:43;93964.94;;;7.47;80.85
42335;BME280;27986;42.700;24.178;2022-09-21T00:36:11;93973.97;;;7.74;79.72
42335;BME280;27986;42.700;24.178;2022-09-21T00:38:37;93977.03;;;7.87;79.03
42335;BME280;27986;42.700;24.178;2022-09-21T00:41:04;93964.00;;;7.78;78.94
42335;BME280;27986;42.700;24.178;2022-09-21T00:43:33;93924.16;;;7.52;78.22
42335;BME280;27986;42.700;24.178;2022-09-21T00:46:02;93959.69;;;7.83;77.53
42335;BME280;27986;42.700;24.178;2022-09-21T00:48:28;93906.00;;;7.36;77.39
42335;BME280;27986;42.700;24.178;2022-09-21T00:50:57;93890.94;;;7.28;76.96
42335;BME280;27986;42.700;24.178;2022-09-21T00:53:23;93939.25;;;7.66;77.71
42335;BME280;27986;42.700;24.178;2022-09-21T00:55:53;93947.94;;;7.79;76.78
42335;BME280;27986;42.700;24.178;2022-09-21T00:58:24;93937.94;;;7.61;77.15
42335;BME280;27986;42.700;24.178;2022-09-21T01:00:52;93919.28;;;7.47;77.78
42335;BME280;27986;42.700;24.178;2022-09-21T01:03:17;93926.66;;;7.44;77.91
42335;BME280;27986;42.700;24.178;2022-09-21T01:05:43;93920.25;;;7.27;78.82
42335;BME280;27986;42.700;24.178;2022-09-21T01:08:10;93922.66;;;6.97;80.22
42335;BME280;27986;42.700;24.178;2022-09-21T01:11:15;93938.28;;;7.09;81.46
42335;BME280;27986;42.700;24.178;2022-09-21T01:19:49;93941.03;;;7.03;81.72
42335;BME280;27986;42.700;24.178;2022-09-21T01:22:35;93941.22;;;6.83;82.76
42335;BME280;27986;42.700;24.178;2022-09-21T01:31:22;93913.44;;;6.85;80.86
42335;BME280;27986;42.700;24.178;2022-09-21T01:33:52;93936.06;;;6.76;81.36
42335;BME280;27986;42.700;24.178;2022-09-21T01:36:22;93935.81;;;6.74;82.62
42335;BME280;27986;42.700;24.178;2022-09-21T01:38:51;93948.19;;;7.04;81.56
42335;BME280;27986;42.700;24.178;2022-09-21T01:41:22;93945.88;;;7.03;81.39
42335;BME280;27986;42.700;24.178;2022-09-21T01:43:54;93932.81;;;6.89;81.71
42335;BME280;27986;42.700;24.178;2022-09-21T01:46:25;93912.88;;;6.75;80.48
42335;BME280;27986;42.700;24.178;2022-09-21T01:48:55;93945.72;;;6.69;81.31
42335;BME280;27986;42.700;24.178;2022-09-21T01:51:25;93918.91;;;6.57;81.52
42335;BME280;27986;42.700;24.178;2022-09-21T01:54:09;93918.69;;;6.29;82.80
42335;BME280;27986;42.700;24.178;2022-09-21T01:56:40;93937.44;;;6.49;83.64
42335;BME280;27986;42.700;24.178;2022-09-21T01:59:39;93936.50;;;6.63;83.09
42335;BME280;27986;42.700;24.178;2022-09-21T02:02:13;93897.69;;;6.45;83.57
42335;BME280;27986;42.700;24.178;2022-09-21T02:04:40;93895.06;;;6.36;84.12
42335;BME280;27986;42.700;24.178;2022-09-21T02:07:06;93890.19;;;6.25;84.35
42335;BME280;27986;42.700;24.178;2022-09-21T02:09:33;93903.75;;;6.38;85.01
42335;BME280;27986;42.700;24.178;2022-09-21T02:11:59;93922.19;;;6.56;83.92
42335;BME280;27986;42.700;24.178;2022-09-21T02:14:27;93952.69;;;6.85;82.92
42335;BME280;27986;42.700;24.178;2022-09-21T02:17:05;93907.97;;;6.59;82.57
42335;BME280;27986;42.700;24.178;2022-09-21T02:20:05;93941.72;;;6.82;82.55
42335;BME280;27986;42.700;24.178;2022-09-21T02:22:38;93941.56;;;7.02;81.82
42335;BME280;27986;42.700;24.178;2022-09-21T02:25:21;93927.31;;;6.63;81.57
42335;BME280;27986;42.700;24.178;2022-09-21T02:27:58;93920.59;;;6.43;84.01
42335;BME280;27986;42.700;24.178;2022-09-21T02:30:26;93938.50;;;6.57;82.84
42335;BME280;27986;42.700;24.178;2022-09-21T02:35:33;93956.72;;;6.78;82.57
42335;BME280;27986;42.700;24.178;2022-09-21T02:41:27;93898.22;;;6.49;80.92
42335;BME280;27986;42.700;24.178;2022-09-21T02:44:16;93952.41;;;6.83;80.98
42335;BME280;27986;42.700;24.178;2022-09-21T02:46:51;93857.09;;;6.29;80.66
42335;BME280;27986;42.700;24.178;2022-09-21T02:49:23;93929.09;;;6.60;80.86
42335;BME280;27986;42.700;24.178;2022-09-21T02:51:53;93953.53;;;6.60;81.73
42335;BME280;27986;42.700;24.178;2022-09-21T02:54:24;93945.66;;;6.58;81.75
42335;BME280;27986;42.700;24.178;2022-09-21T02:56:53;93960.63;;;6.92;81.18
42335;BME280;27986;42.700;24.178;2022-09-21T02:59:20;93953.75;;;6.93;80.93
42335;BME280;27986;42.700;24.178;2022-09-21T03:01:49;93911.28;;;6.63;81.20
42335;BME280;27986;42.700;24.178;2022-09-21T03:04:15;93975.97;;;7.02;80.88
42335;BME280;27986;42.700;24.178;2022-09-21T03:06:41;93929.66;;;6.70;80.93
42335;BME280;27986;42.700;24.178;2022-09-21T03:09:06;93968.19;;;6.81;81.33
42335;BME280;27986;42.700;24.178;2022-09-21T03:11:32;93961.94;;;6.60;82.49
42335;BME280;27986;42.700;24.178;2022-09-21T03:13:59;93932.50;;;6.38;82.96
42335;BME280;27986;42.700;24.178;2022-09-21T03:16:25;93970.66;;;6.67;82.92
42335;BME280;27986;42.700;24.178;2022-09-21T03:18:50;93968.56;;;6.62;83.22
42335;BME280;27986;42.700;24.178;2022-09-21T03:21:16;93962.97;;;6.57;84.59
42335;BME280;27986;42.700;24.178;2022-09-21T03:23:41;93945.53;;;6.41;84.06
42335;BME280;27986;42.700;24.178;2022-09-21T03:26:07;93944.78;;;6.41;84.65
42335;BME280;27986;42.700;24.178;2022-09-21T03:28:33;93929.53;;;6.47;84.23
42335;BME280;27986;42.700;24.178;2022-09-21T03:30:58;93923.47;;;6.17;84.78
42335;BME280;27986;42.700;24.178;2022-09-21T03:33:24;93909.81;;;6.31;84.94
42335;BME280;27986;42.700;24.178;2022-09-21T03:35:50;93933.13;;;6.54;84.46
42335;BME280;27986;42.700;24.178;2022-09-21T03:38:17;93928.59;;;6.62;84.02
42335;BME280;27986;42.700;24.178;2022-09-21T03:40:44;93946.56;;;6.87;83.31
42335;BME280;27986;42.700;24.178;2022-09-21T03:43:11;93922.03;;;6.70;82.68
42335;BME280;27986;42.700;24.178;2022-09-21T03:45:36;93919.13;;;6.54;81.99
42335;BME280;27986;42.700;24.178;2022-09-21T03:48:02;93938.81;;;6.28;84.06
42335;BME280;27986;42.700;24.178;2022-09-21T03:50:28;93907.50;;;6.29;83.84
42335;BME280;27986;42.700;24.178;2022-09-21T03:52:55;93933.81;;;6.43;83.89
42335;BME280;27986;42.700;24.178;2022-09-21T03:55:21;93949.78;;;6.68;83.08
42335;BME280;27986;42.700;24.178;2022-09-21T03:57:47;93947.28;;;6.76;82.27
42335;BME280;27986;42.700;24.178;2022-09-21T04:00:14;93936.00;;;6.65;82.42
42335;BME280;27986;42.700;24.178;2022-09-21T04:02:40;93950.19;;;6.56;83.30
42335;BME280;27986;42.700;24.178;2022-09-21T04:05:07;93930.25;;;6.42;83.46
42335;BME280;27986;42.700;24.178;2022-09-21T04:07:33;93949.84;;;6.80;83.16
42335;BME280;27986;42.700;24.178;2022-09-21T04:10:00;93956.81;;;6.95;81.86
42335;BME280;27986;42.700;24.178;2022-09-21T04:12:26;93959.88;;;6.97;81.78
42335;BME280;27986;42.700;24.178;2022-09-21T04:14:52;93958.63;;;6.98;81.53
42335;BME280;27986;42.700;24.178;2022-09-21T04:17:17;93896.28;;;6.72;81.58
42335;BME280;27986;42.700;24.178;2022-09-21T04:19:43;93890.97;;;6.74;81.27
42335;BME280;27986;42.700;24.178;2022-09-21T04:22:12;93892.03;;;6.82;80.46
42335;BME280;27986;42.700;24.178;2022-09-21T04:24:38;93937.91;;;6.85;81.20
42335;BME280;27986;42.700;24.178;2022-09-21T04:27:06;93962.00;;;7.14;80.88
42335;BME280;27986;42.700;24.178;2022-09-21T04:29:31;93964.28;;;7.10;80.91
42335;BME280;27986;42.700;24.178;2022-09-21T04:31:57;93950.78;;;6.65;82.39
42335;BME280;27986;42.700;24.178;2022-09-21T04:34:22;93953.00;;;6.56;83.27
42335;BME280;27986;42.700;24.178;2022-09-21T04:36:48;93939.09;;;6.72;83.29
42335;BME280;27986;42.700;24.178;2022-09-21T04:39:13;93913.41;;;6.74;82.68
42335;BME280;27986;42.700;24.178;2022-09-21T04:41:39;93975.88;;;6.86;82.20
42335;BME280;27986;42.700;24.178;2022-09-21T04:44:06;93968.88;;;7.13;82.40
42335;BME280;27986;42.700;24.178;2022-09-21T04:46:32;93912.50;;;6.99;81.60
42335;BME280;27986;42.700;24.178;2022-09-21T04:48:57;93902.16;;;6.68;81.58
42335;BME280;27986;42.700;24.178;2022-09-21T04:51:23;93975.84;;;7.34;81.41
42335;BME280;27986;42.700;24.178;2022-09-21T04:53:48;93941.66;;;7.30;80.41
42335;BME280;27986;42.700;24.178;2022-09-21T04:56:14;93980.00;;;7.55;80.20
42335;BME280;27986;42.700;24.178;2022-09-21T04:58:40;93972.84;;;7.43;80.49
42335;BME280;27986;42.700;24.178;2022-09-21T05:01:06;93950.00;;;7.08;81.24
42335;BME280;27986;42.700;24.178;2022-09-21T05:03:32;93983.81;;;7.41;81.36
42335;BME280;27986;42.700;24.178;2022-09-21T05:05:57;93942.28;;;6.91;81.38
42335;BME280;27986;42.700;24.178;2022-09-21T05:08:25;93981.91;;;7.16;83.29
42335;BME280;27986;42.700;24.178;2022-09-21T05:11:13;93970.72;;;7.27;82.98
42335;BME280;27986;42.700;24.178;2022-09-21T05:13:46;93974.44;;;7.67;81.88
42335;BME280;27986;42.700;24.178;2022-09-21T05:16:12;93954.94;;;7.35;81.63
42335;BME280;27986;42.700;24.178;2022-09-21T05:18:38;93955.06;;;7.03;83.63
42335;BME280;27986;42.700;24.178;2022-09-21T05:21:04;93918.81;;;6.89;83.49
42335;BME280;27986;42.700;24.178;2022-09-21T05:23:30;93958.94;;;7.12;82.46
42335;BME280;27986;42.700;24.178;2022-09-21T05:25:57;93991.38;;;7.24;82.14
42335;BME280;27986;42.700;24.178;2022-09-21T05:28:24;93959.22;;;6.71;83.47
42335;BME280;27986;42.700;24.178;2022-09-21T05:32:00;93975.03;;;6.74;84.94
42335;BME280;27986;42.700;24.178;2022-09-21T05:34:06;93957.16;;;6.71;86.23
42335;BME280;27986;42.700;24.178;2022-09-21T05:39:15;93944.19;;;7.17;85.19
42335;BME280;27986;42.700;24.178;2022-09-21T05:41:41;93935.69;;;7.05;88.19
42335;BME280;27986;42.700;24.178;2022-09-21T05:44:11;93953.34;;;7.23;82.98
42335;BME280;27986;42.700;24.178;2022-09-21T05:49:18;93972.38;;;7.61;83.54
42335;BME280;27986;42.700;24.178;2022-09-21T05:54:42;93968.66;;;8.21;80.58
42335;BME280;27986;42.700;24.178;2022-09-21T05:57:25;93950.53;;;7.99;80.21
42335;BME280;27986;42.700;24.178;2022-09-21T06:00:14;93969.91;;;7.86;81.25
42335;BME280;27986;42.700;24.178;2022-09-21T06:03:27;93965.47;;;7.51;82.95
42335;BME280;27986;42.700;24.178;2022-09-21T06:05:45;93953.66;;;7.30;84.99
42335;BME280;27986;42.700;24.178;2022-09-21T06:08:10;93958.78;;;7.38;84.24
42335;BME280;27986;42.700;24.178;2022-09-21T06:10:36;93925.78;;;7.10;85.54
42335;BME280;27986;42.700;24.178;2022-09-21T06:13:01;93970.53;;;7.47;86.06
42335;BME280;27986;42.700;24.178;2022-09-21T06:15:27;93912.06;;;7.18;87.33
42335;BME280;27986;42.700;24.178;2022-09-21T06:17:52;93954.31;;;7.85;89.57
42335;BME280;27986;42.700;24.178;2022-09-21T06:20:18;93949.97;;;7.89;84.71
42335;BME280;27986;42.700;24.178;2022-09-21T06:22:43;93935.91;;;7.67;87.89
42335;BME280;27986;42.700;24.178;2022-09-21T06:25:09;93973.78;;;8.33;87.08
42335;BME280;27986;42.700;24.178;2022-09-21T06:27:34;93965.91;;;8.43;86.52
42335;BME280;27986;42.700;24.178;2022-09-21T06:30:00;93925.03;;;8.36;84.65
42335;BME280;27986;42.700;24.178;2022-09-21T06:32:25;93953.34;;;8.83;84.96
42335;BME280;27986;42.700;24.178;2022-09-21T06:34:51;93970.41;;;9.08;82.49
42335;BME280;27986;42.700;24.178;2022-09-21T06:37:16;93971.19;;;9.08;81.51
42335;BME280;27986;42.700;24.178;2022-09-21T06:39:42;93970.44;;;8.91;83.39
42335;BME280;27986;42.700;24.178;2022-09-21T06:42:08;93962.00;;;8.96;82.98
42335;BME280;27986;42.700;24.178;2022-09-21T06:44:33;93973.44;;;9.21;81.68
42335;BME280;27986;42.700;24.178;2022-09-21T06:46:58;93952.69;;;9.35;79.53
42335;BME280;27986;42.700;24.178;2022-09-21T06:49:24;93987.75;;;9.28;79.52
42335;BME280;27986;42.700;24.178;2022-09-21T06:51:53;93988.84;;;8.92;80.72
42335;BME280;27986;42.700;24.178;2022-09-21T06:54:18;93983.75;;;9.65;82.04
42335;BME280;27986;42.700;24.178;2022-09-21T06:56:44;93937.69;;;9.05;78.86
42335;BME280;27986;42.700;24.178;2022-09-21T06:59:09;93952.47;;;9.16;79.06
42335;BME280;27986;42.700;24.178;2022-09-21T07:01:35;93958.00;;;9.44;78.76
42335;BME280;27986;42.700;24.178;2022-09-21T07:04:00;93974.22;;;9.16;80.75
42335;BME280;27986;42.700;24.178;2022-09-21T07:06:26;93984.53;;;9.66;79.20
42335;BME280;27986;42.700;24.178;2022-09-21T07:08:51;93992.50;;;10.08;77.77
42335;BME280;27986;42.700;24.178;2022-09-21T07:11:18;93949.47;;;10.08;78.02
42335;BME280;27986;42.700;24.178;2022-09-21T07:13:43;93970.19;;;9.69;76.32
42335;BME280;27986;42.700;24.178;2022-09-21T07:16:09;93977.56;;;9.78;76.89
42335;BME280;27986;42.700;24.178;2022-09-21T07:18:36;93950.25;;;9.67;76.42
42335;BME280;27986;42.700;24.178;2022-09-21T07:21:04;93998.88;;;9.62;77.75
42335;BME280;27986;42.700;24.178;2022-09-21T07:23:31;93994.25;;;9.70;80.56
42335;BME280;27986;42.700;24.178;2022-09-21T07:26:04;93991.50;;;10.06;78.16
42335;BME280;27986;42.700;24.178;2022-09-21T07:28:29;93982.50;;;10.07;76.95
42335;BME280;27986;42.700;24.178;2022-09-21T07:30:55;93980.22;;;10.06;77.06
42335;BME280;27986;42.700;24.178;2022-09-21T07:33:22;93976.22;;;9.90;76.88
42335;BME280;27986;42.700;24.178;2022-09-21T07:35:53;93959.31;;;9.90;76.56
42335;BME280;27986;42.700;24.178;2022-09-21T07:38:21;93993.78;;;10.07;78.02
42335;BME280;27986;42.700;24.178;2022-09-21T07:40:47;93985.06;;;10.11;77.82
42335;BME280;27986;42.700;24.178;2022-09-21T07:43:13;93958.69;;;10.08;77.78
42335;BME280;27986;42.700;24.178;2022-09-21T07:45:38;93961.97;;;10.18;77.85
42335;BME280;27986;42.700;24.178;2022-09-21T07:48:04;93956.44;;;10.01;77.46
42335;BME280;27986;42.700;24.178;2022-09-21T07:50:32;93955.38;;;10.10;78.37
42335;BME280;27986;42.700;24.178;2022-09-21T07:53:01;93977.81;;;10.21;77.47
42335;BME280;27986;42.700;24.178;2022-09-21T07:55:28;93991.41;;;10.58;76.89
42335;BME280;27986;42.700;24.178;2022-09-21T07:57:54;93973.59;;;10.45;77.40
42335;BME280;27986;42.700;24.178;2022-09-21T08:00:38;93980.25;;;10.77;76.38
42335;BME280;27986;42.700;24.178;2022-09-21T08:03:04;93976.47;;;10.69;75.95
42335;BME280;27986;42.700;24.178;2022-09-21T08:05:31;93954.25;;;10.60;73.69
42335;BME280;27986;42.700;24.178;2022-09-21T08:07:57;93971.75;;;11.07;72.73
42335;BME280;27986;42.700;24.178;2022-09-21T08:10:24;93974.16;;;11.22;71.15
42335;BME280;27986;42.700;24.178;2022-09-21T08:12:53;93958.44;;;11.51;69.34
42335;BME280;27986;42.700;24.178;2022-09-21T08:15:19;93908.75;;;11.42;67.13
42335;BME280;27986;42.700;24.178;2022-09-21T08:17:45;93941.81;;;11.66;67.09
42335;BME280;27986;42.700;24.178;2022-09-21T08:20:12;93964.72;;;11.87;66.83
42335;BME280;27986;42.700;24.178;2022-09-21T08:22:38;93902.50;;;11.68;66.25
42335;BME280;27986;42.700;24.178;2022-09-21T08:25:04;93970.69;;;12.53;65.69
42335;BME280;27986;42.700;24.178;2022-09-21T08:27:30;93946.84;;;12.81;64.00
42335;BME280;27986;42.700;24.178;2022-09-21T08:29:55;93972.22;;;12.86;62.41
42335;BME280;27986;42.700;24.178;2022-09-21T08:32:20;93966.84;;;12.70;53.62
42335;BME280;27986;42.700;24.178;2022-09-21T08:34:46;93929.06;;;12.35;53.49
42335;BME280;27986;42.700;24.178;2022-09-21T08:37:13;93957.97;;;12.28;54.37
42335;BME280;27986;42.700;24.178;2022-09-21T08:39:39;93943.78;;;11.96;54.66
42335;BME280;27986;42.700;24.178;2022-09-21T08:45:01;93923.06;;;12.06;55.47
42335;BME280;27986;42.700;24.178;2022-09-21T08:47:44;93929.78;;;12.22;54.69
42335;BME280;27986;42.700;24.178;2022-09-21T08:50:34;93914.22;;;11.78;55.72
42335;BME280;27986;42.700;24.178;2022-09-21T08:53:28;93952.41;;;12.03;55.32
42335;BME280;27986;42.700;24.178;2022-09-21T08:55:56;93955.91;;;12.28;55.09
42335;BME280;27986;42.700;24.178;2022-09-21T08:58:27;93941.06;;;12.41;54.73
42335;BME280;27986;42.700;24.178;2022-09-21T09:03:53;93931.13;;;12.34;55.66
42335;BME280;27986;42.700;24.178;2022-09-21T09:06:30;93947.25;;;12.39;54.76
42335;BME280;27986;42.700;24.178;2022-09-21T09:20:06;93948.03;;;12.21;58.36
42335;BME280;27986;42.700;24.178;2022-09-21T09:23:02;93909.00;;;12.20;57.88
42335;BME280;27986;42.700;24.178;2022-09-21T09:25:37;93946.25;;;12.69;56.45
42335;BME280;27986;42.700;24.178;2022-09-21T09:28:31;93920.13;;;12.63;53.04
42335;BME280;27986;42.700;24.178;2022-09-21T09:31:24;93942.28;;;12.91;52.75
42335;BME280;27986;42.700;24.178;2022-09-21T09:34:17;93926.34;;;12.61;53.52
42335;BME280;27986;42.700;24.178;2022-09-21T09:36:51;93939.59;;;12.53;53.06
42335;BME280;27986;42.700;24.178;2022-09-21T09:39:18;93946.09;;;12.48;53.15
42335;BME280;27986;42.700;24.178;2022-09-21T09:52:17;93898.06;;;12.75;51.10
42335;BME280;27986;42.700;24.178;2022-09-21T09:54:43;93931.97;;;13.07;51.76
42335;BME280;27986;42.700;24.178;2022-09-21T09:57:09;93925.09;;;12.89;49.81
42335;BME280;27986;42.700;24.178;2022-09-21T09:59:50;93920.91;;;12.77;49.96
42335;BME280;27986;42.700;24.178;2022-09-21T10:02:19;93936.22;;;12.55;50.60
42335;BME280;27986;42.700;24.178;2022-09-21T10:07:32;93930.41;;;12.47;50.59
42335;BME280;27986;42.700;24.178;2022-09-21T10:09:58;93916.56;;;12.76;51.57
42335;BME280;27986;42.700;24.178;2022-09-21T10:12:24;93925.81;;;13.35;49.67
42335;BME280;27986;42.700;24.178;2022-09-21T10:14:53;93914.47;;;13.35;49.09
42335;BME280;27986;42.700;24.178;2022-09-21T10:17:23;93901.09;;;13.48;48.28
42335;BME280;27986;42.700;24.178;2022-09-21T10:19:58;93907.41;;;13.28;47.91
42335;BME280;27986;42.700;24.178;2022-09-21T10:22:24;93908.19;;;13.29;48.05
42335;BME280;27986;42.700;24.178;2022-09-21T10:24:51;93893.66;;;13.19;48.03
42335;BME280;27986;42.700;24.178;2022-09-21T10:27:32;93906.72;;;12.95;48.08
42335;BME280;27986;42.700;24.178;2022-09-21T10:29:58;93878.81;;;12.73;48.30
42335;BME280;27986;42.700;24.178;2022-09-21T10:32:28;93898.31;;;12.90;48.34
42335;BME280;27986;42.700;24.178;2022-09-21T10:37:39;93895.09;;;13.26;47.50
42335;BME280;27986;42.700;24.178;2022-09-21T10:42:43;93890.75;;;13.38;45.98
42335;BME280;27986;42.700;24.178;2022-09-21T10:45:23;93888.22;;;13.47;46.41
42335;BME280;27986;42.700;24.178;2022-09-21T10:47:56;93887.03;;;13.43;45.76
42335;BME280;27986;42.700;24.178;2022-09-21T10:55:37;93873.06;;;13.71;46.13
42335;BME280;27986;42.700;24.178;2022-09-21T10:58:08;93875.91;;;13.58;45.78
42335;BME280;27986;42.700;24.178;2022-09-21T11:00:43;93876.44;;;13.57;44.65
42335;BME280;27986;42.700;24.178;2022-09-21T11:06:30;93861.81;;;14.34;43.57
42335;BME280;27986;42.700;24.178;2022-09-21T11:09:17;93850.34;;;14.81;43.00
42335;BME280;27986;42.700;24.178;2022-09-21T11:12:02;93848.53;;;14.71;42.07
42335;BME280;27986;42.700;24.178;2022-09-21T11:14:52;93852.00;;;14.35;42.33
42335;BME280;27986;42.700;24.178;2022-09-21T11:22:55;93841.50;;;15.21;40.33
42335;BME280;27986;42.700;24.178;2022-09-21T11:28:04;93821.06;;;14.45;40.21
42335;BME280;27986;42.700;24.178;2022-09-21T11:31:28;93830.16;;;14.64;40.44
42335;BME280;27986;42.700;24.178;2022-09-21T11:39:07;93820.63;;;14.20;42.10
42335;BME280;27986;42.700;24.178;2022-09-21T11:44:34;93825.34;;;13.96;42.82
42335;BME280;27986;42.700;24.178;2022-09-21T11:50:19;93826.09;;;13.63;45.06
42335;BME280;27986;42.700;24.178;2022-09-21T11:55:35;93830.34;;;14.24;42.18
42335;BME280;27986;42.700;24.178;2022-09-21T12:08:57;93789.66;;;14.92;41.19
42335;BME280;27986;42.700;24.178;2022-09-21T12:12:30;93833.38;;;14.89;42.46
42335;BME280;27986;42.700;24.178;2022-09-21T12:14:29;93852.97;;;15.36;43.82
42335;BME280;27986;42.700;24.178;2022-09-21T12:22:32;93814.28;;;14.69;45.93
42335;BME280;27986;42.700;24.178;2022-09-21T12:25:09;93837.72;;;14.90;47.32
42335;BME280;27986;42.700;24.178;2022-09-21T12:27:40;93823.06;;;14.78;47.62
42335;BME280;27986;42.700;24.178;2022-09-21T12:30:13;93841.53;;;14.92;46.02
42335;BME280;27986;42.700;24.178;2022-09-21T12:35:15;93852.38;;;13.97;47.95
42335;BME280;27986;42.700;24.178;2022-09-21T12:38:25;93864.84;;;14.15;48.40
42335;BME280;27986;42.700;24.178;2022-09-21T12:40:36;93838.41;;;14.20;48.15
42335;BME280;27986;42.700;24.178;2022-09-21T12:43:25;93840.28;;;13.97;46.99
42335;BME280;27986;42.700;24.178;2022-09-21T12:46:00;93844.56;;;14.11;47.80
42335;BME280;27986;42.700;24.178;2022-09-21T12:48:37;93836.50;;;14.78;47.82
42335;BME280;27986;42.700;24.178;2022-09-21T12:53:40;93841.13;;;14.26;47.54
42335;BME280;27986;42.700;24.178;2022-09-21T13:01:40;93851.91;;;14.27;48.83
42335;BME280;27986;42.700;24.178;2022-09-21T13:09:41;93864.09;;;14.98;46.58
42335;BME280;27986;42.700;24.178;2022-09-21T13:12:20;93828.75;;;14.36;47.33
42335;BME280;27986;42.700;24.178;2022-09-21T13:14:51;93808.75;;;14.42;47.42
42335;BME280;27986;42.700;24.178;2022-09-21T13:17:25;93832.50;;;14.73;46.39
42335;BME280;27986;42.700;24.178;2022-09-21T13:20:02;93834.72;;;15.24;47.99
42335;BME280;27986;42.700;24.178;2022-09-21T13:22:35;93807.97;;;15.48;45.36
42335;BME280;27986;42.700;24.178;2022-09-21T13:25:22;93840.56;;;14.90;47.08
42335;BME280;27986;42.700;24.178;2022-09-21T13:41:00;93833.47;;;13.32;48.04
42335;BME280;27986;42.700;24.178;2022-09-21T13:51:48;93821.28;;;14.05;46.13
42335;BME280;27986;42.700;24.178;2022-09-21T13:54:15;93819.72;;;13.83;45.67
42335;BME280;27986;42.700;24.178;2022-09-21T13:56:42;93805.34;;;14.02;44.98
42335;BME280;27986;42.700;24.178;2022-09-21T13:59:19;93802.59;;;13.89;45.40
42335;BME280;27986;42.700;24.178;2022-09-21T14:01:47;93796.47;;;13.85;45.55
42335;BME280;27986;42.700;24.178;2022-09-21T14:06:47;93797.47;;;14.08;45.18
42335;BME280;27986;42.700;24.178;2022-09-21T14:11:57;93788.00;;;14.26;44.53
42335;BME280;27986;42.700;24.178;2022-09-21T14:14:29;93782.25;;;14.40;43.60
42335;BME280;27986;42.700;24.178;2022-09-21T14:16:59;93796.44;;;14.19;42.80
42335;BME280;27986;42.700;24.178;2022-09-21T14:32:45;93788.59;;;13.09;43.84
42335;BME280;27986;42.700;24.178;2022-09-21T14:35:19;93794.78;;;12.94;44.93
42335;BME280;27986;42.700;24.178;2022-09-21T14:37:49;93810.03;;;13.18;44.42
42335;BME280;27986;42.700;24.178;2022-09-21T14:40:21;93809.16;;;13.36;42.82
42335;BME280;27986;42.700;24.178;2022-09-21T14:42:53;93815.91;;;13.20;44.18
42335;BME280;27986;42.700;24.178;2022-09-21T14:46:00;93808.50;;;13.17;44.77
42335;BME280;27986;42.700;24.178;2022-09-21T15:07:50;93809.72;;;12.95;46.61
42335;BME280;27986;42.700;24.178;2022-09-21T15:10:48;93807.09;;;12.97;47.36
42335;BME280;27986;42.700;24.178;2022-09-21T15:16:41;93802.63;;;12.75;48.76
42335;BME280;27986;42.700;24.178;2022-09-21T15:24:34;93792.72;;;12.68;47.99
42335;BME280;27986;42.700;24.178;2022-09-21T15:27:07;93795.56;;;12.68;48.60
42335;BME280;27986;42.700;24.178;2022-09-21T15:29:37;93783.69;;;12.57;48.25
42335;BME280;27986;42.700;24.178;2022-09-21T15:32:05;93809.56;;;12.61;47.18
42335;BME280;27986;42.700;24.178;2022-09-21T15:34:31;93777.72;;;12.47;46.32
42335;BME280;27986;42.700;24.178;2022-09-21T15:37:26;93820.69;;;12.85;47.18
42335;BME280;27986;42.700;24.178;2022-09-21T15:40:00;93814.94;;;12.78;47.33
42335;BME280;27986;42.700;24.178;2022-09-21T15:42:26;93815.88;;;12.40;47.02
42335;BME280;27986;42.700;24.178;2022-09-21T15:45:09;93822.84;;;12.39;47.55
42335;BME280;27986;42.700;24.178;2022-09-21T15:47:35;93777.41;;;12.05;48.42
42335;BME280;27986;42.700;24.178;2022-09-21T15:50:01;93813.47;;;11.99;50.81
42335;BME280;27986;42.700;24.178;2022-09-21T15:52:39;93843.13;;;11.93;52.13
42335;BME280;27986;42.700;24.178;2022-09-21T15:55:16;93848.00;;;11.73;54.11
42335;BME280;27986;42.700;24.178;2022-09-21T15:57:47;93862.59;;;11.77;55.30
42335;BME280;27986;42.700;24.178;2022-09-21T16:02:39;93860.50;;;11.03;58.93
42335;BME280;27986;42.700;24.178;2022-09-21T16:05:10;93851.44;;;10.85;59.87
42335;BME280;27986;42.700;24.178;2022-09-21T16:07:39;93892.44;;;10.62;60.69
42335;BME280;27986;42.700;24.178;2022-09-21T16:13:21;93875.81;;;9.57;66.08
42335;BME280;27986;42.700;24.178;2022-09-21T16:16:08;93892.06;;;9.34;67.90
42335;BME280;27986;42.700;24.178;2022-09-21T16:18:51;93882.06;;;9.33;69.05
42335;BME280;27986;42.700;24.178;2022-09-21T16:21:37;93915.66;;;9.20;70.55
42335;BME280;27986;42.700;24.178;2022-09-21T16:24:09;93899.28;;;9.18;68.55
42335;BME280;27986;42.700;24.178;2022-09-21T16:26:40;93894.97;;;9.06;69.23
42335;BME280;27986;42.700;24.178;2022-09-21T16:29:36;93922.50;;;9.30;69.32
42335;BME280;27986;42.700;24.178;2022-09-21T16:32:19;93927.38;;;9.29;67.06
42335;BME280;27986;42.700;24.178;2022-09-21T16:34:48;93912.00;;;9.36;66.77